Time;durP1;ratioP1;P1;durP2;ratioP2;P2;SDS_P1;SDS_P2;PMS_P1;PMS_P2;Temp;Humidity;BMP_temperature;BMP_pressure;BME280_temperature;BME280_humidity;BME280_pressure;Samples;Min_cycle;Max_cycle;Signal;HPM_P1;HPM_P2
2023/04/09 00:02:19;;;;;;;64.50;33.40;;;;;;;;;;5027812;28;20178;-68
2023/04/09 00:04:44;;;;;;;58.92;34.28;;;;;;;;;;5032310;28;20265;-68
2023/04/09 00:07:10;;;;;;;57.30;32.83;;;;;;;;;;5028123;28;20198;-67
2023/04/09 00:09:35;;;;;;;60.22;32.40;;;;;;;;;;5027418;28;20244;-68
2023/04/09 00:12:01;;;;;;;60.17;32.75;;;;;;;;;;5022827;28;20198;-68
2023/04/09 00:14:26;;;;;;;58.60;33.42;;;;;;;;;;5031423;28;20221;-68
2023/04/09 00:16:52;;;;;;;58.70;32.03;;;;;;;;;;5027229;28;20672;-68
2023/04/09 00:19:17;;;;;;;75.63;34.30;;;;;;;;;;5031768;28;20260;-68
2023/04/09 00:21:43;;;;;;;56.42;32.13;;;;;;;;;;5030886;28;20264;-68
2023/04/09 00:24:08;;;;;;;54.22;31.38;;;;;;;;;;5031573;28;20538;-68
2023/04/09 00:26:33;;;;;;;55.65;31.48;;;;;;;;;;5027311;28;20300;-68
2023/04/09 00:28:59;;;;;;;57.22;31.00;;;;;;;;;;5030314;28;20193;-69
2023/04/09 00:31:24;;;;;;;52.97;29.58;;;;;;;;;;5031826;28;20352;-68
2023/04/09 00:33:50;;;;;;;54.63;31.80;;;;;;;;;;5025818;28;20191;-68
2023/04/09 00:36:15;;;;;;;56.08;32.60;;;;;;;;;;5028147;28;20196;-68
2023/04/09 00:38:41;;;;;;;59.35;31.70;;;;;;;;;;5027707;28;20534;-69
2023/04/09 00:41:06;;;;;;;54.78;30.65;;;;;;;;;;5028860;28;20193;-68
2023/04/09 00:43:31;;;;;;;56.80;30.52;;;;;;;;;;5026721;28;20230;-68
2023/04/09 00:45:58;;;;;;;52.60;29.35;;;;;;;;;;5017615;28;20205;-68
2023/04/09 00:48:24;;;;;;;50.22;29.00;;;;;;;;;;5020758;28;20592;-68
2023/04/09 00:50:49;;;;;;;57.20;31.55;;;;;;;;;;5024195;28;20187;-68
2023/04/09 00:53:15;;;;;;;50.33;29.20;;;;;;;;;;5025804;28;20214;-68
2023/04/09 00:55:41;;;;;;;51.15;29.98;;;;;;;;;;5026083;28;20193;-69
2023/04/09 00:58:07;;;;;;;47.80;29.25;;;;;;;;;;5022184;28;20197;-68
2023/04/09 01:00:32;;;;;;;47.10;28.45;;;;;;;;;;5025604;28;20787;-68
2023/04/09 01:02:58;;;;;;;54.70;28.95;;;;;;;;;;5021819;28;20214;-68
2023/04/09 01:05:30;;;;;;;51.75;30.33;;;;;;;;;;5024772;28;20191;-69
2023/04/09 01:08:10;;;;;;;49.17;28.50;;;;;;;;;;5027386;28;20208;-68
2023/04/09 01:10:49;;;;;;;47.30;28.73;;;;;;;;;;5018507;28;20197;-69
2023/04/09 01:13:32;;;;;;;50.08;29.75;;;;;;;;;;5026862;28;20232;-68
2023/04/09 01:16:00;;;;;;;49.08;28.42;;;;;;;;;;5020293;28;20273;-69
2023/04/09 01:18:25;;;;;;;52.35;29.20;;;;;;;;;;5026007;28;20209;-69
2023/04/09 01:20:59;;;;;;;50.95;29.02;;;;;;;;;;5026568;28;20216;-69
2023/04/09 01:23:54;;;;;;;45.10;27.40;;;;;;;;;;5024742;28;20202;-69
2023/04/09 01:26:28;;;;;;;47.35;27.98;;;;;;;;;;5024263;28;20224;-68
2023/04/09 01:28:56;;;;;;;45.88;28.20;;;;;;;;;;5022346;28;20189;-69
2023/04/09 01:31:27;;;;;;;48.47;28.05;;;;;;;;;;5025936;28;20318;-69
2023/04/09 01:33:53;;;;;;;51.33;28.05;;;;;;;;;;5021842;28;20206;-69
2023/04/09 01:36:19;;;;;;;43.88;27.33;;;;;;;;;;5020192;28;20237;-69
2023/04/09 01:38:47;;;;;;;46.03;28.10;;;;;;;;;;5025898;28;20202;-69
2023/04/09 01:41:23;;;;;;;46.28;27.75;;;;;;;;;;5020751;28;20533;-69
2023/04/09 01:43:50;;;;;;;45.65;27.45;;;;;;;;;;5026245;28;20289;-69
2023/04/09 01:46:17;;;;;;;44.33;26.88;;;;;;;;;;5021599;28;20600;-69
2023/04/09 01:48:43;;;;;;;48.50;28.00;;;;;;;;;;5023834;28;20297;-69
2023/04/09 01:51:09;;;;;;;44.83;27.98;;;;;;;;;;5022866;28;20270;-68
2023/04/09 01:53:35;;;;;;;49.95;28.00;;;;;;;;;;5021372;28;20356;-69
2023/04/09 01:56:01;;;;;;;42.92;26.60;;;;;;;;;;5025340;28;20197;-68
2023/04/09 01:58:26;;;;;;;44.15;25.80;;;;;;;;;;5023292;28;20193;-68
2023/04/09 02:00:58;;;;;;;42.63;26.83;;;;;;;;;;5023010;28;20210;-69
2023/04/09 02:03:29;;;;;;;41.30;26.85;;;;;;;;;;5018606;28;20206;-69
2023/04/09 02:06:19;;;;;;;43.28;27.45;;;;;;;;;;5020776;28;20186;-69
2023/04/09 02:08:46;;;;;;;46.40;27.70;;;;;;;;;;5023478;28;20234;-69
2023/04/09 02:11:13;;;;;;;49.13;28.88;;;;;;;;;;5022111;28;20273;-68
2023/04/09 02:13:40;;;;;;;43.42;27.13;;;;;;;;;;5021444;28;20588;-69
2023/04/09 02:16:07;;;;;;;48.17;26.75;;;;;;;;;;5025166;28;20222;-69
2023/04/09 02:18:33;;;;;;;46.55;27.15;;;;;;;;;;5018631;28;20663;-68
2023/04/09 02:20:59;;;;;;;43.70;27.08;;;;;;;;;;5022695;28;20197;-69
2023/04/09 02:23:25;;;;;;;42.53;27.17;;;;;;;;;;5028303;28;20210;-68
2023/04/09 02:25:52;;;;;;;45.10;26.67;;;;;;;;;;5029970;28;20285;-68
2023/04/09 02:28:17;;;;;;;46.80;27.20;;;;;;;;;;5028903;28;20201;-69
2023/04/09 02:30:43;;;;;;;41.88;26.73;;;;;;;;;;5026689;28;20523;-68
2023/04/09 02:33:08;;;;;;;43.60;26.55;;;;;;;;;;5029264;28;20208;-69
2023/04/09 02:35:34;;;;;;;44.97;26.63;;;;;;;;;;5020708;28;20194;-69
2023/04/09 02:37:59;;;;;;;43.63;26.88;;;;;;;;;;5027431;28;20658;-68
2023/04/09 02:40:25;;;;;;;43.15;26.40;;;;;;;;;;5027607;28;20185;-69
2023/04/09 02:42:53;;;;;;;41.47;25.83;;;;;;;;;;5019219;28;20326;-69
2023/04/09 02:45:18;;;;;;;42.95;26.77;;;;;;;;;;5026527;28;20872;-69
2023/04/09 02:47:44;;;;;;;42.17;27.23;;;;;;;;;;5022311;28;20198;-68
2023/04/09 02:50:09;;;;;;;40.00;25.92;;;;;;;;;;5027105;28;20190;-69
2023/04/09 02:52:35;;;;;;;45.38;26.67;;;;;;;;;;5023172;28;20274;-69
2023/04/09 02:55:00;;;;;;;42.00;26.58;;;;;;;;;;5022654;28;20197;-69
2023/04/09 02:57:26;;;;;;;43.88;26.88;;;;;;;;;;5023110;28;20181;-68
2023/04/09 02:59:51;;;;;;;44.80;27.08;;;;;;;;;;5027122;28;20205;-68
2023/04/09 03:02:16;;;;;;;45.88;27.48;;;;;;;;;;5025920;28;20559;-69
2023/04/09 03:04:42;;;;;;;45.65;27.27;;;;;;;;;;5027396;28;20210;-69
2023/04/09 03:07:07;;;;;;;44.28;27.90;;;;;;;;;;5020256;28;20202;-69
2023/04/09 03:09:32;;;;;;;43.53;27.30;;;;;;;;;;5028340;28;20190;-69
2023/04/09 03:11:58;;;;;;;46.47;27.65;;;;;;;;;;5022460;28;20201;-69
2023/04/09 03:14:23;;;;;;;47.55;27.75;;;;;;;;;;5026416;28;20201;-68
2023/04/09 03:16:49;;;;;;;45.35;27.05;;;;;;;;;;5017860;28;20524;-69
2023/04/09 03:19:14;;;;;;;42.08;25.27;;;;;;;;;;5025659;28;20247;-69
2023/04/09 03:21:40;;;;;;;46.38;27.90;;;;;;;;;;5027640;28;20212;-68
2023/04/09 03:24:06;;;;;;;45.40;26.98;;;;;;;;;;5028282;28;20210;-69
2023/04/09 03:26:35;;;;;;;46.00;26.42;;;;;;;;;;5027060;28;20670;-68
2023/04/09 03:29:01;;;;;;;45.33;27.45;;;;;;;;;;5026057;28;20614;-69
2023/04/09 03:31:27;;;;;;;45.38;28.35;;;;;;;;;;5020938;28;20457;-69
2023/04/09 03:33:52;;;;;;;49.33;29.10;;;;;;;;;;5042990;28;20200;-71
2023/04/09 03:36:17;;;;;;;48.15;27.90;;;;;;;;;;5027285;28;20190;-68
2023/04/09 03:38:43;;;;;;;46.95;28.83;;;;;;;;;;5027306;28;20186;-69
2023/04/09 03:41:08;;;;;;;49.80;27.85;;;;;;;;;;5029967;28;20197;-69
2023/04/09 03:43:33;;;;;;;48.58;29.02;;;;;;;;;;5029038;28;20206;-69
2023/04/09 03:45:59;;;;;;;49.83;29.35;;;;;;;;;;5025238;28;20638;-68
2023/04/09 03:48:24;;;;;;;49.65;28.63;;;;;;;;;;5025811;28;20197;-68
2023/04/09 03:50:52;;;;;;;49.10;28.92;;;;;;;;;;5028165;28;20249;-69
2023/04/09 03:53:17;;;;;;;46.70;27.75;;;;;;;;;;5025104;28;20709;-68
2023/04/09 03:55:43;;;;;;;47.67;28.58;;;;;;;;;;5030745;28;20284;-68
2023/04/09 03:58:08;;;;;;;45.28;27.63;;;;;;;;;;5026924;28;20649;-69
2023/04/09 04:00:33;;;;;;;48.88;29.45;;;;;;;;;;5020889;28;20559;-69
2023/04/09 04:02:59;;;;;;;46.42;28.67;;;;;;;;;;5014726;28;20245;-69
2023/04/09 04:05:25;;;;;;;50.20;28.83;;;;;;;;;;5020900;28;20197;-69
2023/04/09 04:07:50;;;;;;;46.95;28.13;;;;;;;;;;5020821;28;20194;-69
2023/04/09 04:10:16;;;;;;;48.83;28.38;;;;;;;;;;5024191;28;20182;-69
2023/04/09 04:12:41;;;;;;;48.63;27.88;;;;;;;;;;5019262;28;20209;-69
2023/04/09 04:15:07;;;;;;;45.30;27.77;;;;;;;;;;5025722;28;20521;-69
2023/04/09 04:17:32;;;;;;;44.75;27.20;;;;;;;;;;5021613;28;20229;-68
2023/04/09 04:19:58;;;;;;;44.60;26.80;;;;;;;;;;5024314;28;20232;-68
2023/04/09 04:22:23;;;;;;;49.28;27.95;;;;;;;;;;5021157;28;20379;-69
2023/04/09 04:24:48;;;;;;;47.38;27.35;;;;;;;;;;5023931;28;20291;-69
2023/04/09 04:27:14;;;;;;;46.08;27.05;;;;;;;;;;5014286;28;20277;-68
2023/04/09 04:29:39;;;;;;;45.92;28.40;;;;;;;;;;5017718;28;20870;-69
2023/04/09 04:32:05;;;;;;;50.75;28.40;;;;;;;;;;5021928;28;20230;-68
2023/04/09 04:34:30;;;;;;;44.75;26.95;;;;;;;;;;5017391;28;20206;-68
2023/04/09 04:36:57;;;;;;;46.65;27.33;;;;;;;;;;5021536;28;20205;-68
2023/04/09 04:39:22;;;;;;;46.45;27.00;;;;;;;;;;5020671;28;20538;-68
2023/04/09 04:41:47;;;;;;;46.92;26.15;;;;;;;;;;5024648;28;20270;-68
2023/04/09 04:44:13;;;;;;;48.38;26.65;;;;;;;;;;5023787;28;20205;-69
2023/04/09 04:46:38;;;;;;;44.20;25.75;;;;;;;;;;5024481;28;20907;-68
2023/04/09 04:49:03;;;;;;;45.13;26.45;;;;;;;;;;5025386;28;20198;-68
2023/04/09 04:51:32;;;;;;;46.60;26.15;;;;;;;;;;5029355;28;20265;-68
2023/04/09 04:53:57;;;;;;;45.15;26.20;;;;;;;;;;5022159;28;20178;-68
2023/04/09 04:56:22;;;;;;;45.47;26.00;;;;;;;;;;5021639;28;20197;-68
2023/04/09 04:58:48;;;;;;;48.03;26.30;;;;;;;;;;5022324;28;20272;-68
2023/04/09 05:01:13;;;;;;;51.45;26.20;;;;;;;;;;5018826;28;20214;-69
2023/04/09 05:03:38;;;;;;;45.05;25.65;;;;;;;;;;5023007;28;20223;-69
2023/04/09 05:06:04;;;;;;;46.65;25.60;;;;;;;;;;5021448;28;20637;-69
2023/04/09 05:08:29;;;;;;;46.13;26.27;;;;;;;;;;5019684;28;20206;-68
2023/04/09 05:10:55;;;;;;;47.17;26.92;;;;;;;;;;5020270;28;20245;-69
2023/04/09 05:13:21;;;;;;;44.20;25.83;;;;;;;;;;5014741;28;20256;-68
2023/04/09 05:15:46;;;;;;;45.88;26.35;;;;;;;;;;5020892;28;20234;-68
2023/04/09 05:18:11;;;;;;;49.45;27.08;;;;;;;;;;5022147;28;20683;-68
2023/04/09 05:20:37;;;;;;;47.47;25.75;;;;;;;;;;5019155;28;20243;-69
2023/04/09 05:23:02;;;;;;;48.58;26.48;;;;;;;;;;5020003;28;20291;-68
2023/04/09 05:25:28;;;;;;;49.42;26.75;;;;;;;;;;5019754;28;20561;-67
2023/04/09 05:27:53;;;;;;;47.40;26.58;;;;;;;;;;5022510;28;20240;-69
2023/04/09 05:30:18;;;;;;;49.28;27.42;;;;;;;;;;5023676;28;20182;-68
2023/04/09 05:32:44;;;;;;;49.40;26.65;;;;;;;;;;5024663;28;20237;-68
2023/04/09 05:35:09;;;;;;;50.03;28.67;;;;;;;;;;5023553;28;20661;-69
2023/04/09 05:37:35;;;;;;;51.05;27.58;;;;;;;;;;5018954;28;20244;-69
2023/04/09 05:40:00;;;;;;;48.63;26.75;;;;;;;;;;5023882;28;20205;-69
2023/04/09 05:42:25;;;;;;;53.35;28.48;;;;;;;;;;5023374;28;20263;-69
2023/04/09 05:44:51;;;;;;;51.42;28.27;;;;;;;;;;5024841;28;20214;-68
2023/04/09 05:47:16;;;;;;;57.00;28.00;;;;;;;;;;5020140;28;20194;-69
2023/04/09 05:49:41;;;;;;;54.58;28.50;;;;;;;;;;5023169;28;20202;-68
2023/04/09 05:52:07;;;;;;;50.47;27.75;;;;;;;;;;5020831;28;20196;-68
2023/04/09 05:54:34;;;;;;;52.40;27.10;;;;;;;;;;5019475;28;20405;-68
2023/04/09 05:56:59;;;;;;;50.13;27.45;;;;;;;;;;5018155;28;20269;-68
2023/04/09 05:59:25;;;;;;;51.92;27.58;;;;;;;;;;5029178;28;20336;-69
2023/04/09 06:01:51;;;;;;;50.92;27.50;;;;;;;;;;5024600;28;20438;-68
2023/04/09 06:04:16;;;;;;;49.25;27.95;;;;;;;;;;5030494;28;20248;-70
2023/04/09 06:06:41;;;;;;;53.70;28.38;;;;;;;;;;5029336;28;20276;-68
2023/04/09 06:09:07;;;;;;;51.90;28.20;;;;;;;;;;5030539;28;20677;-68
2023/04/09 06:11:33;;;;;;;53.33;29.55;;;;;;;;;;5026838;28;20209;-68
2023/04/09 06:13:58;;;;;;;52.40;28.45;;;;;;;;;;5026650;28;20221;-68
2023/04/09 06:16:23;;;;;;;52.20;28.67;;;;;;;;;;5027503;28;20198;-68
2023/04/09 06:18:52;;;;;;;50.22;28.23;;;;;;;;;;5031962;28;20194;-68
2023/04/09 06:21:18;;;;;;;54.63;29.88;;;;;;;;;;5032723;28;20186;-68
2023/04/09 06:23:43;;;;;;;58.72;31.15;;;;;;;;;;5023528;28;20218;-69
2023/04/09 06:26:08;;;;;;;55.60;30.40;;;;;;;;;;5020539;28;20255;-68
2023/04/09 06:28:35;;;;;;;57.72;31.83;;;;;;;;;;5022115;28;20566;-68
2023/04/09 06:31:00;;;;;;;55.58;30.65;;;;;;;;;;5021938;28;20276;-68
2023/04/09 06:33:26;;;;;;;57.65;30.05;;;;;;;;;;5028237;28;20523;-68
2023/04/09 06:35:51;;;;;;;61.25;32.35;;;;;;;;;;5029967;28;20190;-68
2023/04/09 06:38:17;;;;;;;60.15;30.77;;;;;;;;;;5023090;28;20570;-68
2023/04/09 06:40:42;;;;;;;56.58;31.02;;;;;;;;;;5023687;28;20270;-68
2023/04/09 06:43:08;;;;;;;60.97;32.38;;;;;;;;;;5023416;28;20216;-69
2023/04/09 06:45:34;;;;;;;62.63;32.25;;;;;;;;;;5025752;28;20214;-69
2023/04/09 06:48:00;;;;;;;59.15;31.88;;;;;;;;;;5022667;28;20197;-68
2023/04/09 06:50:26;;;;;;;56.95;31.55;;;;;;;;;;5016593;28;20186;-68
2023/04/09 06:52:51;;;;;;;57.13;31.02;;;;;;;;;;5019006;28;20187;-69
2023/04/09 06:55:17;;;;;;;56.72;30.48;;;;;;;;;;5016878;28;20236;-68
2023/04/09 06:57:42;;;;;;;55.33;30.48;;;;;;;;;;5021880;28;20287;-68
2023/04/09 07:00:08;;;;;;;56.95;31.25;;;;;;;;;;5022679;28;20224;-69
2023/04/09 07:02:35;;;;;;;57.25;32.05;;;;;;;;;;5018484;28;20201;-69
2023/04/09 07:05:00;;;;;;;59.38;31.35;;;;;;;;;;5013720;28;20203;-70
2023/04/09 07:07:25;;;;;;;58.75;31.95;;;;;;;;;;5022067;28;20206;-68
2023/04/09 07:09:52;;;;;;;60.30;31.65;;;;;;;;;;5023999;28;20201;-68
2023/04/09 07:12:27;;;;;;;63.33;32.25;;;;;;;;;;5020135;28;20663;-69
2023/04/09 07:14:57;;;;;;;60.30;30.52;;;;;;;;;;5027159;28;20182;-69
2023/04/09 07:17:22;;;;;;;62.95;31.08;;;;;;;;;;5026997;28;20212;-69
2023/04/09 07:19:50;;;;;;;58.70;30.52;;;;;;;;;;5017852;28;20190;-69
2023/04/09 07:22:15;;;;;;;62.80;31.17;;;;;;;;;;5014004;28;20607;-69
2023/04/09 07:24:41;;;;;;;58.15;31.75;;;;;;;;;;5019295;28;20206;-68
2023/04/09 07:27:06;;;;;;;57.05;29.40;;;;;;;;;;5021581;28;20194;-70
2023/04/09 07:29:32;;;;;;;59.97;31.45;;;;;;;;;;5016798;28;20197;-68
2023/04/09 07:31:59;;;;;;;52.38;29.67;;;;;;;;;;5012765;28;20237;-69
2023/04/09 07:34:25;;;;;;;61.65;31.25;;;;;;;;;;5014619;28;20218;-69
2023/04/09 07:36:51;;;;;;;57.35;30.52;;;;;;;;;;5011441;28;20457;-68
2023/04/09 07:39:17;;;;;;;56.25;31.02;;;;;;;;;;5015373;28;20190;-69
2023/04/09 07:41:42;;;;;;;60.58;31.95;;;;;;;;;;5027435;28;20289;-68
2023/04/09 07:44:08;;;;;;;56.35;29.77;;;;;;;;;;5025003;28;20221;-69
2023/04/09 07:46:33;;;;;;;59.72;30.40;;;;;;;;;;5018494;28;20206;-68
2023/04/09 07:48:59;;;;;;;57.85;31.38;;;;;;;;;;5019693;28;20210;-71
2023/04/09 07:51:24;;;;;;;56.30;32.50;;;;;;;;;;5024244;28;20284;-69
2023/04/09 07:53:50;;;;;;;53.80;29.60;;;;;;;;;;5017038;28;20673;-69
2023/04/09 07:56:15;;;;;;;56.42;30.60;;;;;;;;;;5023928;28;20201;-69
2023/04/09 07:58:41;;;;;;;56.55;31.30;;;;;;;;;;5024583;28;20198;-70
2023/04/09 08:01:07;;;;;;;55.67;30.83;;;;;;;;;;5019812;28;20625;-68
2023/04/09 08:03:34;;;;;;;55.67;30.30;;;;;;;;;;5025978;28;20222;-68
2023/04/09 08:06:00;;;;;;;54.85;30.27;;;;;;;;;;5024847;28;20182;-69
2023/04/09 08:08:25;;;;;;;56.22;30.90;;;;;;;;;;5018365;28;20206;-69
2023/04/09 08:10:51;;;;;;;57.80;30.92;;;;;;;;;;5018554;28;20198;-68
2023/04/09 08:13:16;;;;;;;60.03;32.50;;;;;;;;;;5023826;28;20186;-68
2023/04/09 08:15:41;;;;;;;57.05;31.17;;;;;;;;;;5023276;28;20186;-68
2023/04/09 08:18:07;;;;;;;54.55;30.83;;;;;;;;;;5024835;28;20241;-69
2023/04/09 08:20:32;;;;;;;53.20;30.05;;;;;;;;;;5024209;28;20209;-69
2023/04/09 08:22:58;;;;;;;49.30;28.75;;;;;;;;;;5027852;28;20634;-68
2023/04/09 08:25:25;;;;;;;47.47;26.50;;;;;;;;;;5024952;28;20186;-69
2023/04/09 08:27:50;;;;;;;48.75;28.33;;;;;;;;;;5025228;28;20545;-69
2023/04/09 08:30:16;;;;;;;49.92;27.88;;;;;;;;;;5005727;28;20209;-69
2023/04/09 08:32:43;;;;;;;46.83;27.73;;;;;;;;;;5026779;28;20244;-68
2023/04/09 08:35:09;;;;;;;49.95;28.15;;;;;;;;;;5025362;28;20281;-69
2023/04/09 08:37:34;;;;;;;49.22;26.92;;;;;;;;;;5025537;28;20272;-69
2023/04/09 08:39:59;;;;;;;48.28;27.70;;;;;;;;;;5027256;28;20638;-68
2023/04/09 08:42:26;;;;;;;46.05;26.65;;;;;;;;;;5026872;28;20240;-69
2023/04/09 08:44:51;;;;;;;46.78;25.77;;;;;;;;;;5025960;28;20486;-69
2023/04/09 08:47:19;;;;;;;46.53;26.02;;;;;;;;;;5016910;28;20738;-69
2023/04/09 08:49:44;;;;;;;41.65;24.38;;;;;;;;;;5017004;28;20229;-69
2023/04/09 08:52:10;;;;;;;41.35;24.98;;;;;;;;;;5018295;28;20235;-69
2023/04/09 08:54:35;;;;;;;45.88;25.13;;;;;;;;;;5009563;28;20277;-70
2023/04/09 08:57:04;;;;;;;42.17;24.30;;;;;;;;;;5019643;28;20232;-70
2023/04/09 08:59:30;;;;;;;40.08;23.35;;;;;;;;;;5020705;28;20194;-70
2023/04/09 09:02:10;;;;;;;37.33;23.23;;;;;;;;;;5021185;28;20587;-69
2023/04/09 09:04:46;;;;;;;40.00;23.80;;;;;;;;;;5024046;28;20324;-71
2023/04/09 09:07:11;;;;;;;37.65;22.08;;;;;;;;;;5023773;28;20247;-70
2023/04/09 09:09:54;;;;;;;37.10;22.02;;;;;;;;;;5023312;28;20193;-71
2023/04/09 09:12:30;;;;;;;37.60;22.00;;;;;;;;;;5023198;28;20189;-69
2023/04/09 09:14:56;;;;;;;40.92;24.05;;;;;;;;;;5023057;28;20243;-69
2023/04/09 09:17:21;;;;;;;40.47;23.65;;;;;;;;;;5022036;28;20198;-68
2023/04/09 09:19:46;;;;;;;36.88;22.60;;;;;;;;;;5024153;28;20867;-69
2023/04/09 09:22:12;;;;;;;34.17;21.48;;;;;;;;;;5023253;28;20204;-69
2023/04/09 09:24:51;;;;;;;35.72;21.17;;;;;;;;;;5023486;28;20217;-68
2023/04/09 09:27:39;;;;;;;33.90;21.02;;;;;;;;;;5022868;28;20218;-69
2023/04/09 09:30:05;;;;;;;37.22;21.38;;;;;;;;;;5019785;28;20194;-69
2023/04/09 09:32:32;;;;;;;39.45;21.65;;;;;;;;;;5017790;28;20229;-70
2023/04/09 09:35:01;;;;;;;34.03;20.00;;;;;;;;;;5013939;28;20618;-69
2023/04/09 09:37:28;;;;;;;34.33;20.60;;;;;;;;;;5019680;28;20209;-69
2023/04/09 09:39:54;;;;;;;32.17;20.60;;;;;;;;;;5019234;28;20190;-69
2023/04/09 09:42:19;;;;;;;31.55;20.38;;;;;;;;;;5029787;28;20201;-69
2023/04/09 09:44:45;;;;;;;34.10;21.50;;;;;;;;;;5023145;28;20221;-69
2023/04/09 09:47:13;;;;;;;30.40;19.63;;;;;;;;;;5025504;28;20194;-69
2023/04/09 09:49:38;;;;;;;31.23;17.98;;;;;;;;;;5025720;28;20198;-69
2023/04/09 09:52:09;;;;;;;30.73;19.38;;;;;;;;;;5027388;28;20209;-69
2023/04/09 09:54:46;;;;;;;29.50;18.23;;;;;;;;;;5018684;28;20203;-69
2023/04/09 09:57:13;;;;;;;26.67;17.25;;;;;;;;;;5019462;28;20197;-68
2023/04/09 10:00:00;;;;;;;26.23;15.95;;;;;;;;;;5023665;28;20232;-69
2023/04/09 10:02:31;;;;;;;26.25;16.48;;;;;;;;;;5021040;28;20224;-69
2023/04/09 10:04:59;;;;;;;27.83;16.75;;;;;;;;;;5024877;28;20217;-69
2023/04/09 10:07:25;;;;;;;25.33;15.88;;;;;;;;;;5038133;28;20593;-68
2023/04/09 10:09:55;;;;;;;23.35;15.55;;;;;;;;;;5020815;28;20214;-68
2023/04/09 10:12:22;;;;;;;24.13;15.80;;;;;;;;;;5026233;28;20669;-68
2023/04/09 10:14:51;;;;;;;26.05;17.27;;;;;;;;;;5026943;28;20674;-68
2023/04/09 10:17:18;;;;;;;26.33;16.55;;;;;;;;;;5025221;28;20210;-68
2023/04/09 10:19:52;;;;;;;23.13;15.25;;;;;;;;;;5017725;28;20201;-68
2023/04/09 10:22:22;;;;;;;17.17;11.80;;;;;;;;;;5025831;28;20404;-68
2023/04/09 10:24:48;;;;;;;17.48;12.43;;;;;;;;;;5022987;28;20202;-68
2023/04/09 10:27:15;;;;;;;17.55;12.50;;;;;;;;;;5025136;28;20198;-68
2023/04/09 10:29:48;;;;;;;18.10;12.55;;;;;;;;;;5021660;28;20182;-69
2023/04/09 10:32:22;;;;;;;18.38;12.27;;;;;;;;;;5027985;28;20639;-68
2023/04/09 10:34:49;;;;;;;20.55;13.88;;;;;;;;;;5021919;28;20528;-68
2023/04/09 10:37:23;;;;;;;18.95;12.82;;;;;;;;;;5027857;28;20549;-69
2023/04/09 10:39:50;;;;;;;19.20;13.40;;;;;;;;;;5024583;28;20205;-69
2023/04/09 10:42:29;;;;;;;18.70;13.05;;;;;;;;;;5028939;28;20194;-69
2023/04/09 10:45:12;;;;;;;19.23;12.70;;;;;;;;;;5012799;28;21089;-68
2023/04/09 10:47:40;;;;;;;19.50;13.55;;;;;;;;;;5012928;28;20189;-68
2023/04/09 10:50:25;;;;;;;17.50;12.68;;;;;;;;;;5023906;28;20263;-68
2023/04/09 10:52:52;;;;;;;18.80;12.35;;;;;;;;;;5021764;28;20193;-68
2023/04/09 10:55:33;;;;;;;19.42;12.82;;;;;;;;;;5016474;28;20194;-69
2023/04/09 10:57:59;;;;;;;19.95;13.27;;;;;;;;;;5022328;28;20683;-69
2023/04/09 11:00:24;;;;;;;19.40;12.57;;;;;;;;;;5012788;28;20211;-69
2023/04/09 11:03:22;;;;;;;20.17;13.43;;;;;;;;;;5026409;28;20622;-69
2023/04/09 11:06:09;;;;;;;18.65;13.40;;;;;;;;;;5018749;28;20617;-68
2023/04/09 11:08:36;;;;;;;16.60;11.90;;;;;;;;;;5022254;28;20199;-68
2023/04/09 11:11:02;;;;;;;14.70;10.23;;;;;;;;;;5022260;28;20195;-69
2023/04/09 11:13:29;;;;;;;15.32;10.30;;;;;;;;;;5028142;28;20194;-68
2023/04/09 11:15:56;;;;;;;13.82;9.98;;;;;;;;;;5027843;28;20243;-69
2023/04/09 11:18:24;;;;;;;14.25;9.90;;;;;;;;;;5021187;28;20273;-68
2023/04/09 11:20:52;;;;;;;14.77;10.18;;;;;;;;;;5021604;28;20517;-68
2023/04/09 11:23:18;;;;;;;13.18;9.35;;;;;;;;;;5016457;28;20298;-68
2023/04/09 11:25:47;;;;;;;13.93;9.95;;;;;;;;;;5022599;28;20353;-69
2023/04/09 11:28:13;;;;;;;13.27;9.63;;;;;;;;;;5024195;28;20213;-68
2023/04/09 11:30:38;;;;;;;14.88;10.00;;;;;;;;;;5023546;28;20198;-68
2023/04/09 11:33:05;;;;;;;14.38;10.20;;;;;;;;;;5022828;28;20197;-67
2023/04/09 11:35:33;;;;;;;13.82;9.50;;;;;;;;;;5022795;28;20190;-68
2023/04/09 11:37:58;;;;;;;10.88;8.55;;;;;;;;;;5025558;28;20186;-68
2023/04/09 11:40:27;;;;;;;12.60;9.15;;;;;;;;;;5023977;28;20190;-68
2023/04/09 11:42:54;;;;;;;12.52;8.90;;;;;;;;;;5022837;28;20194;-68
2023/04/09 11:45:27;;;;;;;12.68;8.80;;;;;;;;;;5025890;28;20658;-67
2023/04/09 11:47:53;;;;;;;12.32;8.52;;;;;;;;;;5025692;28;20189;-68
2023/04/09 11:50:20;;;;;;;13.82;9.10;;;;;;;;;;5025299;28;20194;-68
2023/04/09 11:52:45;;;;;;;14.30;9.18;;;;;;;;;;5018601;28;20197;-69
2023/04/09 11:55:21;;;;;;;11.27;8.50;;;;;;;;;;5014928;28;20186;-69
2023/04/09 11:57:46;;;;;;;10.75;8.40;;;;;;;;;;5020866;28;20253;-68
2023/04/09 12:00:14;;;;;;;11.68;8.40;;;;;;;;;;5022564;28;20674;-68
2023/04/09 12:02:49;;;;;;;11.77;8.00;;;;;;;;;;5027890;28;20186;-69
2023/04/09 12:05:24;;;;;;;10.90;8.07;;;;;;;;;;5024011;28;20591;-68
2023/04/09 12:07:50;;;;;;;10.32;8.02;;;;;;;;;;5027488;28;20228;-69
2023/04/09 12:10:15;;;;;;;12.10;8.45;;;;;;;;;;5026628;28;20563;-69
2023/04/09 12:12:43;;;;;;;12.68;9.23;;;;;;;;;;5023610;28;20285;-68
2023/04/09 12:15:16;;;;;;;12.45;9.35;;;;;;;;;;5012189;28;20179;-70
2023/04/09 12:17:41;;;;;;;11.38;8.68;;;;;;;;;;5019063;28;20613;-69
2023/04/09 12:20:08;;;;;;;13.38;9.02;;;;;;;;;;5020242;28;20328;-69
2023/04/09 12:22:36;;;;;;;11.75;8.57;;;;;;;;;;5023153;28;20251;-68
2023/04/09 12:25:01;;;;;;;11.52;8.63;;;;;;;;;;5023885;28;20213;-68
2023/04/09 12:27:27;;;;;;;13.70;8.98;;;;;;;;;;5019941;28;20190;-69
2023/04/09 12:29:52;;;;;;;12.13;8.75;;;;;;;;;;5019909;28;20186;-68
2023/04/09 12:32:18;;;;;;;12.10;9.00;;;;;;;;;;5016945;28;20229;-68
2023/04/09 12:34:43;;;;;;;12.32;9.27;;;;;;;;;;5022587;28;20194;-71
2023/04/09 12:37:09;;;;;;;13.85;10.13;;;;;;;;;;5019220;28;20190;-68
2023/04/09 12:39:35;;;;;;;12.55;9.10;;;;;;;;;;5014709;28;20195;-68
2023/04/09 12:42:00;;;;;;;14.35;10.38;;;;;;;;;;5017527;28;20189;-68
2023/04/09 12:44:26;;;;;;;13.35;9.48;;;;;;;;;;5012304;28;20242;-69
2023/04/09 12:46:51;;;;;;;14.18;10.70;;;;;;;;;;5018830;28;20215;-71
2023/04/09 12:49:17;;;;;;;13.70;9.98;;;;;;;;;;5025153;28;20231;-68
2023/04/09 12:51:42;;;;;;;14.80;9.93;;;;;;;;;;5017979;28;20273;-68
2023/04/09 12:54:08;;;;;;;11.93;9.45;;;;;;;;;;5027622;28;20708;-69
2023/04/09 12:56:33;;;;;;;13.05;9.43;;;;;;;;;;5019560;28;20189;-68
2023/04/09 12:58:58;;;;;;;13.13;10.07;;;;;;;;;;5021157;28;20186;-68
2023/04/09 13:01:24;;;;;;;14.77;9.98;;;;;;;;;;5019366;28;20275;-68
2023/04/09 13:03:49;;;;;;;13.15;9.45;;;;;;;;;;5024494;28;20615;-69
2023/04/09 13:06:15;;;;;;;14.85;10.60;;;;;;;;;;5017329;28;20196;-69
2023/04/09 13:08:40;;;;;;;13.43;9.98;;;;;;;;;;5024838;28;20193;-68
2023/04/09 13:11:06;;;;;;;13.07;9.95;;;;;;;;;;5026373;28;20677;-68
2023/04/09 13:13:31;;;;;;;12.48;9.27;;;;;;;;;;5022385;28;20217;-68
2023/04/09 13:15:56;;;;;;;12.80;9.85;;;;;;;;;;5022893;28;20182;-68
2023/04/09 13:18:22;;;;;;;13.40;9.77;;;;;;;;;;5020212;28;20194;-68
2023/04/09 13:20:47;;;;;;;11.88;9.32;;;;;;;;;;5014176;28;20185;-69
2023/04/09 13:23:12;;;;;;;11.27;8.10;;;;;;;;;;5017032;28;20218;-69
2023/04/09 13:25:38;;;;;;;12.57;9.45;;;;;;;;;;5013632;28;20190;-69
2023/04/09 13:28:03;;;;;;;12.55;9.00;;;;;;;;;;5025391;28;20213;-67
2023/04/09 13:30:29;;;;;;;10.98;8.63;;;;;;;;;;5017600;28;20198;-68
2023/04/09 13:32:54;;;;;;;13.85;9.75;;;;;;;;;;5019295;28;20193;-69
2023/04/09 13:35:20;;;;;;;11.82;8.35;;;;;;;;;;5014038;28;20397;-68
2023/04/09 13:37:45;;;;;;;11.23;8.88;;;;;;;;;;5019235;28;20641;-69
2023/04/09 13:40:11;;;;;;;12.90;9.65;;;;;;;;;;5020228;28;20247;-69
2023/04/09 13:42:36;;;;;;;13.25;9.05;;;;;;;;;;5021282;28;20190;-69
2023/04/09 13:45:02;;;;;;;11.27;9.00;;;;;;;;;;5019901;28;20708;-68
2023/04/09 13:47:28;;;;;;;13.10;9.25;;;;;;;;;;5019474;28;20190;-68
2023/04/09 13:49:53;;;;;;;13.10;8.82;;;;;;;;;;5026606;28;20528;-68
2023/04/09 13:52:19;;;;;;;11.27;8.77;;;;;;;;;;5020052;28;20272;-68
2023/04/09 13:54:44;;;;;;;13.02;9.05;;;;;;;;;;5022195;28;20201;-68
2023/04/09 13:57:10;;;;;;;11.40;8.75;;;;;;;;;;5011929;28;20194;-68
2023/04/09 13:59:36;;;;;;;11.73;9.35;;;;;;;;;;5014919;28;20190;-69
2023/04/09 14:02:02;;;;;;;11.60;8.85;;;;;;;;;;5021427;28;20215;-67
2023/04/09 14:04:28;;;;;;;14.70;9.25;;;;;;;;;;5015328;28;20221;-68
2023/04/09 14:06:53;;;;;;;12.70;9.20;;;;;;;;;;5012846;28;20195;-68
2023/04/09 14:09:18;;;;;;;16.55;9.30;;;;;;;;;;5017175;28;20190;-68
2023/04/09 14:11:44;;;;;;;12.10;9.05;;;;;;;;;;5016095;28;20201;-68
2023/04/09 14:14:09;;;;;;;12.32;9.38;;;;;;;;;;5021649;28;20583;-68
2023/04/09 14:16:35;;;;;;;12.45;9.55;;;;;;;;;;5024067;28;20188;-68
2023/04/09 14:19:00;;;;;;;13.43;9.65;;;;;;;;;;5022750;28;20269;-68